createdAt,value
2018-04-06T00:00:47.740Z,0.00
2018-04-06T00:01:47.656Z,0.00
2018-04-06T00:02:47.575Z,0.00
2018-04-06T00:03:47.491Z,0.00
2018-04-06T00:04:47.410Z,0.00
2018-04-06T00:05:47.329Z,0.00
2018-04-06T00:06:47.251Z,0.00
2018-04-06T00:07:47.182Z,0.00
2018-04-06T00:08:47.113Z,0.00
2018-04-06T00:09:47.004Z,0.00
2018-04-06T00:10:46.923Z,0.00
2018-04-06T00:11:46.835Z,0.00
2018-04-06T00:12:46.753Z,0.00
2018-04-06T00:13:46.669Z,0.00
2018-04-06T00:14:46.589Z,0.00
2018-04-06T00:15:46.505Z,0.00
2018-04-06T00:16:46.422Z,0.00
2018-04-06T00:17:46.345Z,0.00
2018-04-06T00:18:46.266Z,0.00
2018-04-06T00:19:46.180Z,0.00
2018-04-06T00:20:46.097Z,0.00
2018-04-06T00:21:46.020Z,0.00
2018-04-06T00:22:45.931Z,0.00
2018-04-06T00:23:45.849Z,0.00
2018-04-06T00:24:45.772Z,0.00
2018-04-06T00:25:45.686Z,0.00
2018-04-06T00:26:45.608Z,0.00
2018-04-06T00:27:45.538Z,0.00
2018-04-06T00:28:45.441Z,0.00
2018-04-06T00:29:45.355Z,0.00
2018-04-06T00:30:45.273Z,0.00
2018-04-06T00:31:45.192Z,0.00
2018-04-06T00:32:45.111Z,0.00
2018-04-06T00:33:45.027Z,0.00
2018-04-06T00:34:44.984Z,0.00
2018-04-06T00:35:44.886Z,0.00
2018-04-06T00:36:44.786Z,0.00
2018-04-06T00:37:44.697Z,0.00
2018-04-06T00:38:44.619Z,0.00
2018-04-06T00:39:44.538Z,0.00
2018-04-06T00:40:44.456Z,0.00
2018-04-06T00:41:44.370Z,0.00
2018-04-06T00:42:44.298Z,0.00
2018-04-06T00:43:44.205Z,0.00
2018-04-06T00:44:44.122Z,0.00
2018-04-06T00:45:44.039Z,0.00
2018-04-06T00:46:43.958Z,0.00
2018-04-06T00:47:43.875Z,0.00
2018-04-06T00:48:43.794Z,0.00
2018-04-06T00:49:43.710Z,0.00
2018-04-06T00:50:43.629Z,0.00
2018-04-06T00:51:43.553Z,0.00
2018-04-06T00:52:43.468Z,0.00
2018-04-06T00:53:43.405Z,0.00
2018-04-06T00:54:43.299Z,0.00
2018-04-06T00:55:43.216Z,0.00
2018-04-06T00:56:43.134Z,0.00
2018-04-06T00:57:43.052Z,0.00
2018-04-06T00:58:42.971Z,0.00
2018-04-06T00:59:42.886Z,0.00
2018-04-06T01:00:42.804Z,0.00
2018-04-06T01:01:42.722Z,0.00
2018-04-06T01:02:42.639Z,0.00
2018-04-06T01:03:42.560Z,0.00
2018-04-06T01:04:42.475Z,0.00
2018-04-06T01:05:42.393Z,0.00
2018-04-06T01:06:42.309Z,0.00
2018-04-06T01:07:42.229Z,0.00
2018-04-06T01:08:42.146Z,0.00
2018-04-06T01:09:42.062Z,0.00
2018-04-06T01:10:41.982Z,0.00
2018-04-06T01:11:41.898Z,0.00
2018-04-06T01:12:41.816Z,0.00
2018-04-06T01:13:41.732Z,0.00
2018-04-06T01:14:41.657Z,0.00
2018-04-06T01:15:41.568Z,0.00
2018-04-06T01:16:41.485Z,0.00
2018-04-06T01:17:41.402Z,0.00
2018-04-06T01:18:41.339Z,0.00
2018-04-06T01:19:41.239Z,0.00
2018-04-06T01:20:41.156Z,0.00
2018-04-06T01:21:41.073Z,0.00
2018-04-06T01:22:40.992Z,0.00
2018-04-06T01:23:40.908Z,0.00
2018-04-06T01:24:40.825Z,0.00
2018-04-06T01:25:40.742Z,0.00
2018-04-06T01:26:40.663Z,0.00
2018-04-06T01:27:40.579Z,0.00
2018-04-06T01:28:40.499Z,0.00
2018-04-06T01:29:40.412Z,0.00
2018-04-06T01:30:40.330Z,0.00
2018-04-06T01:31:40.247Z,0.00
2018-04-06T01:32:40.165Z,0.00
2018-04-06T01:33:40.080Z,0.00
2018-04-06T01:34:40.002Z,0.00
2018-04-06T01:35:39.917Z,0.00
2018-04-06T01:36:39.829Z,0.00
2018-04-06T01:37:39.753Z,0.00
2018-04-06T01:38:39.685Z,0.00
2018-04-06T01:39:39.585Z,0.00
2018-04-06T01:40:39.503Z,0.00
2018-04-06T01:41:39.420Z,0.00
2018-04-06T01:42:39.338Z,0.00
2018-04-06T01:43:39.258Z,0.00
2018-04-06T01:44:39.174Z,0.00
2018-04-06T01:45:39.089Z,0.00
2018-04-06T01:46:39.008Z,0.00
2018-04-06T01:47:38.929Z,0.00
2018-04-06T01:48:38.840Z,0.00
2018-04-06T01:49:38.762Z,0.00
2018-04-06T01:50:38.679Z,0.00
2018-04-06T01:51:38.593Z,0.00
2018-04-06T01:52:38.511Z,0.00
2018-04-06T01:53:38.429Z,0.00
2018-04-06T01:54:38.345Z,0.00
2018-04-06T01:55:38.262Z,0.00
2018-04-06T01:56:38.182Z,0.00
2018-04-06T01:57:38.094Z,0.00
2018-04-06T01:58:38.013Z,0.00
2018-04-06T01:59:37.937Z,0.00
2018-04-06T02:00:37.852Z,0.00
2018-04-06T02:01:37.766Z,0.00
2018-04-06T02:02:37.679Z,0.00
2018-04-06T02:03:37.601Z,0.00
2018-04-06T02:04:37.517Z,0.00
2018-04-06T02:05:37.433Z,0.00
2018-04-06T02:06:37.352Z,0.00
2018-04-06T02:07:37.268Z,0.00
2018-04-06T02:08:37.185Z,0.00
2018-04-06T02:09:37.102Z,0.00
2018-04-06T02:10:37.021Z,0.00
2018-04-06T02:11:36.940Z,0.00
2018-04-06T02:12:36.858Z,0.00
2018-04-06T02:13:36.770Z,0.00
2018-04-06T02:14:36.689Z,0.00
2018-04-06T02:15:36.604Z,0.00
2018-04-06T02:16:36.523Z,0.00
2018-04-06T02:17:36.438Z,0.00
2018-04-06T02:18:36.356Z,0.00
2018-04-06T02:19:36.272Z,0.00
2018-04-06T02:20:36.188Z,0.00
2018-04-06T02:21:36.111Z,0.00
2018-04-06T02:22:36.025Z,0.00
2018-04-06T02:23:35.946Z,0.00
2018-04-06T02:24:35.953Z,0.00
2018-04-06T02:25:35.775Z,0.00
2018-04-06T02:26:35.696Z,0.00
2018-04-06T02:27:35.611Z,0.00
2018-04-06T02:28:35.529Z,0.00
2018-04-06T02:29:35.446Z,0.00
2018-04-06T02:30:35.364Z,0.00
2018-04-06T02:31:35.279Z,0.00
2018-04-06T02:32:35.198Z,0.00
2018-04-06T02:33:35.113Z,0.00
2018-04-06T02:34:35.028Z,0.00
2018-04-06T02:35:34.949Z,0.00
2018-04-06T02:36:34.874Z,0.00
2018-04-06T02:37:34.795Z,0.00
2018-04-06T02:38:34.700Z,0.00
2018-04-06T02:39:34.617Z,0.00
2018-04-06T02:40:34.538Z,0.00
2018-04-06T02:41:34.455Z,0.00
2018-04-06T02:42:34.369Z,0.00
2018-04-06T02:43:34.292Z,0.00
2018-04-06T02:44:34.210Z,0.00
2018-04-06T02:45:34.147Z,0.00
2018-04-06T02:46:34.039Z,0.00
2018-04-06T02:47:33.955Z,0.00
2018-04-06T02:48:33.872Z,0.00
2018-04-06T02:49:33.800Z,0.00
2018-04-06T02:50:33.705Z,0.00
2018-04-06T02:51:33.625Z,0.00
2018-04-06T02:52:33.563Z,0.00
2018-04-06T02:53:33.456Z,0.00
2018-04-06T02:54:33.408Z,0.00
2018-04-06T02:55:33.291Z,0.00
2018-04-06T02:56:33.208Z,0.00
2018-04-06T02:57:33.121Z,0.00
2018-04-06T02:58:33.046Z,0.00
2018-04-06T02:59:32.962Z,0.00
2018-04-06T03:00:32.881Z,0.00
2018-04-06T03:01:32.793Z,0.00
2018-04-06T03:02:32.712Z,0.00
2018-04-06T03:03:32.630Z,0.00
2018-04-06T03:04:32.543Z,0.00
2018-04-06T03:05:32.462Z,0.00
2018-04-06T03:06:32.381Z,0.00
2018-04-06T03:07:32.296Z,0.00
2018-04-06T03:08:32.213Z,0.00
2018-04-06T03:09:32.130Z,0.00
2018-04-06T03:10:32.045Z,0.00
2018-04-06T03:11:31.962Z,0.00
2018-04-06T03:12:31.881Z,0.00
2018-04-06T03:13:31.802Z,0.00
2018-04-06T03:14:31.716Z,0.00
2018-04-06T03:15:31.633Z,0.00
2018-04-06T03:16:31.552Z,0.00
2018-04-06T03:17:31.467Z,0.00
2018-04-06T03:18:31.384Z,0.00
2018-04-06T03:19:31.300Z,0.00
2018-04-06T03:20:31.216Z,0.00
2018-04-06T03:21:31.135Z,0.00
2018-04-06T03:22:31.048Z,0.00
2018-04-06T03:23:30.974Z,0.00
2018-04-06T03:24:30.887Z,0.00
2018-04-06T03:25:30.802Z,0.00
2018-04-06T03:26:30.719Z,0.00
2018-04-06T03:27:30.637Z,0.00
2018-04-06T03:28:30.555Z,0.00
2018-04-06T03:29:30.472Z,0.00
2018-04-06T03:30:30.390Z,0.00
2018-04-06T03:31:30.307Z,0.00
2018-04-06T03:32:30.223Z,0.00
2018-04-06T03:33:30.140Z,0.00
2018-04-06T03:34:30.068Z,0.00
2018-04-06T03:35:30.012Z,0.00
2018-04-06T03:36:29.898Z,0.00
2018-04-06T03:37:29.810Z,0.00
2018-04-06T03:38:29.726Z,0.00
2018-04-06T03:39:29.643Z,0.00
2018-04-06T03:40:29.560Z,0.00
2018-04-06T03:41:29.488Z,0.00
2018-04-06T03:42:29.396Z,0.00
2018-04-06T03:43:29.316Z,0.00
2018-04-06T03:44:29.229Z,0.00
2018-04-06T03:45:29.146Z,0.00
2018-04-06T03:46:29.061Z,0.00
2018-04-06T03:47:28.979Z,0.00
2018-04-06T03:48:28.897Z,0.00
2018-04-06T03:49:28.812Z,0.00
2018-04-06T03:50:28.731Z,0.00
2018-04-06T03:51:28.652Z,0.00
2018-04-06T03:52:28.563Z,0.00
2018-04-06T03:53:28.481Z,0.00
2018-04-06T03:54:28.398Z,0.00
2018-04-06T03:55:28.314Z,0.00
2018-04-06T03:56:28.231Z,0.00
2018-04-06T03:57:28.150Z,0.00
2018-04-06T03:58:28.064Z,0.00
2018-04-06T03:59:27.987Z,0.00
2018-04-06T04:00:27.907Z,0.00
2018-04-06T04:01:27.817Z,0.00
2018-04-06T04:02:27.737Z,0.00
2018-04-06T04:03:27.655Z,0.00
2018-04-06T04:04:27.571Z,0.00
2018-04-06T04:05:27.485Z,0.00
2018-04-06T04:06:27.403Z,0.00
2018-04-06T04:07:27.324Z,0.00
2018-04-06T04:08:27.239Z,0.00
2018-04-06T04:09:27.154Z,0.00
2018-04-06T04:10:27.071Z,0.00
2018-04-06T04:11:26.992Z,0.00
2018-04-06T04:12:26.906Z,0.00
2018-04-06T04:13:26.822Z,0.00
2018-04-06T04:14:26.738Z,0.00
2018-04-06T04:15:26.659Z,0.00
2018-04-06T04:16:26.578Z,0.00
2018-04-06T04:17:26.489Z,0.00
2018-04-06T04:18:26.423Z,0.00
2018-04-06T04:19:26.329Z,0.00
2018-04-06T04:20:26.242Z,0.00
2018-04-06T04:21:26.160Z,0.00
2018-04-06T04:22:26.076Z,0.00
2018-04-06T04:23:25.994Z,0.00
2018-04-06T04:24:25.916Z,0.00
2018-04-06T04:25:25.828Z,0.00
2018-04-06T04:26:25.744Z,0.00
2018-04-06T04:27:25.662Z,0.00
2018-04-06T04:28:25.572Z,0.00
2018-04-06T04:29:25.494Z,0.00
2018-04-06T04:30:25.411Z,0.00
2018-04-06T04:31:25.331Z,0.00
2018-04-06T04:32:25.248Z,0.00
2018-04-06T04:33:25.164Z,0.00
2018-04-06T04:34:25.184Z,0.00
2018-04-06T04:35:25.002Z,0.00
2018-04-06T04:36:24.915Z,0.00
2018-04-06T04:37:24.829Z,0.00
2018-04-06T04:38:24.748Z,0.00
2018-04-06T04:39:24.664Z,0.00
2018-04-06T04:40:24.585Z,0.00
2018-04-06T04:41:24.500Z,0.00
2018-04-06T04:42:24.422Z,0.00
2018-04-06T04:43:24.339Z,0.00
2018-04-06T04:44:24.250Z,0.00
2018-04-06T04:45:24.166Z,0.00
2018-04-06T04:46:24.086Z,0.00
2018-04-06T04:47:24.001Z,0.00
2018-04-06T04:48:23.917Z,0.00
2018-04-06T04:49:23.831Z,0.00
2018-04-06T04:50:23.755Z,0.00
2018-04-06T04:51:23.669Z,0.00
2018-04-06T04:52:23.586Z,0.00
2018-04-06T04:53:23.501Z,0.00
2018-04-06T04:54:23.423Z,0.00
2018-04-06T04:55:23.337Z,0.00
2018-04-06T04:56:23.258Z,5.63
2018-04-06T04:57:23.172Z,5.63
2018-04-06T04:58:23.089Z,5.63
2018-04-06T04:59:23.010Z,5.63
2018-04-06T05:00:22.921Z,5.63
2018-04-06T05:01:22.842Z,5.63
2018-04-06T05:02:22.755Z,5.63
2018-04-06T05:03:22.673Z,5.63
2018-04-06T05:04:22.593Z,5.63
2018-04-06T05:05:22.508Z,11.25
2018-04-06T05:06:22.425Z,11.25
2018-04-06T05:07:22.342Z,11.25
2018-04-06T05:08:22.257Z,11.25
2018-04-06T05:09:22.173Z,11.25
2018-04-06T05:10:22.091Z,11.25
2018-04-06T05:11:22.011Z,11.25
2018-04-06T05:12:21.924Z,16.88
2018-04-06T05:13:21.838Z,16.88
2018-04-06T05:14:21.764Z,16.88
2018-04-06T05:15:21.683Z,16.88
2018-04-06T05:16:21.598Z,16.88
2018-04-06T05:17:21.509Z,16.88
2018-04-06T05:18:21.426Z,22.50
2018-04-06T05:19:21.350Z,22.50
2018-04-06T05:20:21.260Z,22.50
2018-04-06T05:21:21.183Z,22.50
2018-04-06T05:22:21.096Z,22.50
2018-04-06T05:23:21.011Z,22.50
2018-04-06T05:24:20.935Z,28.13
2018-04-06T05:25:20.845Z,28.13
2018-04-06T05:26:20.761Z,28.13
2018-04-06T05:27:20.679Z,28.13
2018-04-06T05:28:20.595Z,28.13
2018-04-06T05:29:20.512Z,28.13
2018-04-06T05:30:20.429Z,33.75
2018-04-06T05:31:20.349Z,33.75
2018-04-06T05:32:20.265Z,33.75
2018-04-06T05:33:20.178Z,33.75
2018-04-06T05:34:20.096Z,39.38
2018-04-06T05:35:20.015Z,39.38
2018-04-06T05:36:19.929Z,39.38
2018-04-06T05:37:19.845Z,39.38
2018-04-06T05:38:19.762Z,45.00
2018-04-06T05:39:19.681Z,45.00
2018-04-06T05:40:19.596Z,45.00
2018-04-06T05:41:19.512Z,45.00
2018-04-06T05:42:19.432Z,45.00
2018-04-06T05:43:19.354Z,45.00
2018-04-06T05:44:19.266Z,45.00
2018-04-06T05:45:19.181Z,45.00
2018-04-06T05:46:19.096Z,50.63
2018-04-06T05:47:19.016Z,50.63
2018-04-06T05:48:18.948Z,50.63
2018-04-06T05:49:18.848Z,50.63
2018-04-06T05:50:18.766Z,56.25
2018-04-06T05:51:18.685Z,56.25
2018-04-06T05:52:18.599Z,56.25
2018-04-06T05:53:18.516Z,56.25
2018-04-06T05:54:18.433Z,56.25
2018-04-06T05:55:18.352Z,56.25
2018-04-06T05:56:18.269Z,56.25
2018-04-06T05:57:18.185Z,61.88
2018-04-06T05:58:18.123Z,61.88
2018-04-06T05:59:18.021Z,61.88
2018-04-06T06:00:17.936Z,61.88
2018-04-06T06:01:17.851Z,61.88
2018-04-06T06:02:17.773Z,61.88
2018-04-06T06:03:17.696Z,67.50
2018-04-06T06:04:17.605Z,67.50
2018-04-06T06:05:17.522Z,67.50
2018-04-06T06:06:17.441Z,67.50
2018-04-06T06:07:17.356Z,67.50
2018-04-06T06:08:17.274Z,67.50
2018-04-06T06:09:17.191Z,67.50
2018-04-06T06:10:17.110Z,73.13
2018-04-06T06:11:17.028Z,73.13
2018-04-06T06:12:16.951Z,73.13
2018-04-06T06:13:16.860Z,73.13
2018-04-06T06:14:16.779Z,73.13
2018-04-06T06:15:16.693Z,78.75
2018-04-06T06:16:16.613Z,78.75
2018-04-06T06:17:16.530Z,78.75
2018-04-06T06:18:16.448Z,78.75
2018-04-06T06:19:16.373Z,78.75
2018-04-06T06:20:16.283Z,78.75
2018-04-06T06:21:16.199Z,78.75
2018-04-06T06:22:16.118Z,78.75
2018-04-06T06:23:16.084Z,78.75
2018-04-06T06:24:15.952Z,84.38
2018-04-06T06:25:15.869Z,84.38
2018-04-06T06:26:15.791Z,84.38
2018-04-06T06:27:15.711Z,84.38
2018-04-06T06:28:15.624Z,84.38
2018-04-06T06:29:15.569Z,84.38
2018-04-06T06:30:15.458Z,84.38
2018-04-06T06:31:15.376Z,84.38
2018-04-06T06:32:15.294Z,84.38
2018-04-06T06:33:15.214Z,90.00
2018-04-06T06:34:15.139Z,90.00
2018-04-06T06:35:15.046Z,90.00
2018-04-06T06:36:14.965Z,90.00
2018-04-06T06:37:14.890Z,90.00
2018-04-06T06:38:14.805Z,90.00
2018-04-06T06:39:14.719Z,90.00
2018-04-06T06:40:14.637Z,90.00
2018-04-06T06:41:14.555Z,90.00
2018-04-06T06:42:14.491Z,90.00
2018-04-06T06:43:14.393Z,90.00
2018-04-06T06:44:14.312Z,90.00
2018-04-06T06:45:14.226Z,90.00
2018-04-06T06:46:14.148Z,90.00
2018-04-06T06:47:14.063Z,95.63
2018-04-06T06:48:14.008Z,95.63
2018-04-06T06:49:13.898Z,95.63
2018-04-06T06:50:13.812Z,95.63
2018-04-06T06:51:13.735Z,95.63
2018-04-06T06:52:13.658Z,95.63
2018-04-06T06:53:13.570Z,95.63
2018-04-06T06:54:13.491Z,95.63
2018-04-06T06:55:13.411Z,95.63
2018-04-06T06:56:13.328Z,95.63
2018-04-06T06:57:13.245Z,95.63
2018-04-06T06:58:13.163Z,95.63
2018-04-06T06:59:13.086Z,95.63
2018-04-06T07:00:12.999Z,95.63
2018-04-06T07:01:12.919Z,95.63
2018-04-06T07:02:12.853Z,95.63
2018-04-06T07:03:12.762Z,95.63
2018-04-06T07:04:12.676Z,101.25
2018-04-06T07:05:12.596Z,101.25
2018-04-06T07:06:12.512Z,101.25
2018-04-06T07:07:12.432Z,101.25
2018-04-06T07:08:12.349Z,101.25
2018-04-06T07:09:12.281Z,101.25
2018-04-06T07:10:12.192Z,101.25
2018-04-06T07:11:12.107Z,101.25
2018-04-06T07:12:12.026Z,101.25
2018-04-06T07:13:11.942Z,101.25
2018-04-06T07:14:11.862Z,101.25
2018-04-06T07:15:11.788Z,101.25
2018-04-06T07:16:11.698Z,101.25
2018-04-06T07:17:11.622Z,106.88
2018-04-06T07:18:11.538Z,106.88
2018-04-06T07:19:11.460Z,106.88
2018-04-06T07:20:11.377Z,106.88
2018-04-06T07:21:11.300Z,106.88
2018-04-06T07:22:11.216Z,106.88
2018-04-06T07:23:11.138Z,106.88
2018-04-06T07:24:11.054Z,106.88
2018-04-06T07:25:10.973Z,106.88
2018-04-06T07:26:10.950Z,106.88
2018-04-06T07:27:10.815Z,106.88
2018-04-06T07:28:10.733Z,106.88
2018-04-06T07:29:10.651Z,106.88
2018-04-06T07:30:10.572Z,106.88
2018-04-06T07:31:10.490Z,106.88
2018-04-06T07:32:10.411Z,106.88
2018-04-06T07:33:10.330Z,106.88
2018-04-06T07:34:10.247Z,112.50
2018-04-06T07:35:10.169Z,112.50
2018-04-06T07:36:10.096Z,112.50
2018-04-06T07:37:10.015Z,112.50
2018-04-06T07:38:09.929Z,118.13
2018-04-06T07:39:09.849Z,123.75
2018-04-06T07:40:09.768Z,118.13
2018-04-06T07:41:09.688Z,135.00
2018-04-06T07:42:09.610Z,135.00
2018-04-06T07:43:09.530Z,135.00
2018-04-06T07:44:09.471Z,140.63
2018-04-06T07:45:09.368Z,146.25
2018-04-06T07:46:09.290Z,123.75
2018-04-06T07:47:09.212Z,129.38
2018-04-06T07:48:09.132Z,196.88
2018-04-06T07:49:09.053Z,270.00
2018-04-06T07:50:08.973Z,275.63
2018-04-06T07:51:08.894Z,281.25
2018-04-06T07:52:08.808Z,253.13
2018-04-06T07:53:08.735Z,326.25
2018-04-06T07:54:08.656Z,247.50
2018-04-06T07:55:08.581Z,219.38
2018-04-06T07:56:08.498Z,213.75
2018-04-06T07:57:08.420Z,202.50
2018-04-06T07:58:08.342Z,225.00
2018-04-06T07:59:08.265Z,253.13
2018-04-06T08:00:08.192Z,196.88
2018-04-06T08:01:08.109Z,196.88
2018-04-06T08:02:08.031Z,202.50
2018-04-06T08:03:07.952Z,230.63
2018-04-06T08:04:07.876Z,213.75
2018-04-06T08:05:07.797Z,163.13
2018-04-06T08:06:07.719Z,135.00
2018-04-06T08:07:07.642Z,135.00
2018-04-06T08:08:07.567Z,151.88
2018-04-06T08:09:07.492Z,180.00
2018-04-06T08:10:07.410Z,157.50
2018-04-06T08:11:07.348Z,168.75
2018-04-06T08:12:07.258Z,180.00
2018-04-06T08:13:07.177Z,168.75
2018-04-06T08:14:07.099Z,208.13
2018-04-06T08:15:07.024Z,253.13
2018-04-06T08:16:06.945Z,303.75
2018-04-06T08:17:06.869Z,281.25
2018-04-06T08:18:06.790Z,315.00
2018-04-06T08:19:06.713Z,241.88
2018-04-06T08:20:06.637Z,208.13
2018-04-06T08:21:06.560Z,163.13
2018-04-06T08:22:06.483Z,163.13
2018-04-06T08:23:06.411Z,191.25
2018-04-06T08:24:06.330Z,213.75
2018-04-06T08:25:06.265Z,253.13
2018-04-06T08:26:06.182Z,275.63
2018-04-06T08:27:06.100Z,281.25
2018-04-06T08:28:06.023Z,264.38
2018-04-06T08:29:05.952Z,309.38
2018-04-06T08:30:05.903Z,298.13
2018-04-06T08:31:05.792Z,348.75
2018-04-06T08:32:05.716Z,354.38
2018-04-06T08:33:05.641Z,331.88
2018-04-06T08:34:05.566Z,315.00
2018-04-06T08:35:05.490Z,320.63
2018-04-06T08:36:05.418Z,331.88
2018-04-06T08:37:05.342Z,320.63
2018-04-06T08:38:05.265Z,427.50
2018-04-06T08:39:05.189Z,410.63
2018-04-06T08:40:05.114Z,360.00
2018-04-06T08:41:05.038Z,405.00
2018-04-06T08:42:04.970Z,365.63
2018-04-06T08:43:04.891Z,343.13
2018-04-06T08:44:04.820Z,405.00
2018-04-06T08:45:04.742Z,371.25
2018-04-06T08:46:04.666Z,365.63
2018-04-06T08:47:04.592Z,365.63
2018-04-06T08:48:04.537Z,421.88
2018-04-06T08:49:04.444Z,382.50
2018-04-06T08:50:04.370Z,371.25
2018-04-06T08:51:04.299Z,337.50
2018-04-06T08:52:04.224Z,337.50
2018-04-06T08:53:04.156Z,376.88
2018-04-06T08:54:04.078Z,393.75
2018-04-06T08:55:04.008Z,354.38
2018-04-06T08:56:03.929Z,399.38
2018-04-06T08:57:03.859Z,388.13
2018-04-06T08:58:03.821Z,405.00
2018-04-06T08:59:03.707Z,388.13
2018-04-06T09:00:03.639Z,393.75
2018-04-06T09:01:03.565Z,421.88
2018-04-06T09:02:03.490Z,444.38
2018-04-06T09:03:03.416Z,444.38
2018-04-06T09:04:03.347Z,427.50
2018-04-06T09:05:03.268Z,438.75
2018-04-06T09:06:03.196Z,450.00
2018-04-06T09:07:03.125Z,472.50
2018-04-06T09:08:03.051Z,517.50
2018-04-06T09:09:02.981Z,433.13
2018-04-06T09:10:02.907Z,416.25
2018-04-06T09:11:02.834Z,483.75
2018-04-06T09:12:02.762Z,523.13
2018-04-06T09:13:02.689Z,478.13
2018-04-06T09:14:02.622Z,466.88
2018-04-06T09:15:02.545Z,495.00
2018-04-06T09:16:02.475Z,551.25
2018-04-06T09:17:02.403Z,540.00
2018-04-06T09:18:02.331Z,556.88
2018-04-06T09:19:02.263Z,573.75
2018-04-06T09:20:02.189Z,579.38
2018-04-06T09:21:02.117Z,579.38
2018-04-06T09:22:02.047Z,579.38
2018-04-06T09:23:01.976Z,585.00
2018-04-06T09:24:01.907Z,579.38
2018-04-06T09:25:01.834Z,585.00
2018-04-06T09:26:01.765Z,590.63
2018-04-06T09:27:01.693Z,590.63
2018-04-06T09:28:01.634Z,590.63
2018-04-06T09:29:01.553Z,590.63
2018-04-06T09:30:01.486Z,596.25
2018-04-06T09:31:01.411Z,596.25
2018-04-06T09:32:01.346Z,596.25
2018-04-06T09:33:01.277Z,596.25
2018-04-06T09:34:01.206Z,596.25
2018-04-06T09:35:01.145Z,596.25
2018-04-06T09:36:01.070Z,596.25
2018-04-06T09:37:01.004Z,596.25
2018-04-06T09:38:00.932Z,601.88
2018-04-06T09:39:00.873Z,601.88
2018-04-06T09:40:00.802Z,601.88
2018-04-06T09:41:00.731Z,607.50
2018-04-06T09:42:00.665Z,607.50
2018-04-06T09:43:00.606Z,613.13
2018-04-06T09:44:00.530Z,613.13
2018-04-06T09:45:00.462Z,618.75
2018-04-06T09:46:00.394Z,607.50
2018-04-06T09:47:00.332Z,433.13
2018-04-06T09:48:00.262Z,444.38
2018-04-06T09:49:00.194Z,427.50
2018-04-06T09:50:00.132Z,483.75
2018-04-06T09:51:00.062Z,455.63
2018-04-06T09:51:59.996Z,461.25
2018-04-06T09:52:59.929Z,500.63
2018-04-06T09:53:59.862Z,568.13
2018-04-06T09:54:59.794Z,618.75
2018-04-06T09:55:59.728Z,601.88
2018-04-06T09:56:59.664Z,568.13
2018-04-06T09:57:59.595Z,495.00
2018-04-06T09:58:59.526Z,528.75
2018-04-06T09:59:59.460Z,433.13
2018-04-06T10:00:59.392Z,495.00
2018-04-06T10:01:59.328Z,556.88
2018-04-06T10:02:59.258Z,483.75
2018-04-06T10:03:59.193Z,511.88
2018-04-06T10:04:59.125Z,348.75
2018-04-06T10:05:59.052Z,540.00
2018-04-06T10:06:58.988Z,376.88
2018-04-06T10:07:58.921Z,382.50
2018-04-06T10:08:58.852Z,444.38
2018-04-06T10:09:58.794Z,438.75
2018-04-06T10:10:58.718Z,511.88
2018-04-06T10:11:58.642Z,568.13
2018-04-06T10:12:58.588Z,596.25
2018-04-06T10:13:58.514Z,489.38
2018-04-06T10:14:58.444Z,483.75
2018-04-06T10:15:58.376Z,607.50
2018-04-06T10:16:58.308Z,607.50
2018-04-06T10:17:58.241Z,607.50
2018-04-06T10:18:58.172Z,562.50
2018-04-06T10:19:58.103Z,500.63
2018-04-06T10:20:58.035Z,376.88
2018-04-06T10:21:58.007Z,360.00
2018-04-06T10:22:57.897Z,455.63
2018-04-06T10:23:57.830Z,551.25
2018-04-06T10:24:57.761Z,337.50
2018-04-06T10:25:57.694Z,461.25
2018-04-06T10:26:57.622Z,697.50
2018-04-06T10:27:57.553Z,748.13
2018-04-06T10:28:57.483Z,433.13
2018-04-06T10:29:57.415Z,489.38
2018-04-06T10:30:57.343Z,646.88
2018-04-06T10:31:57.281Z,495.00
2018-04-06T10:32:57.205Z,742.50
2018-04-06T10:33:57.136Z,776.25
2018-04-06T10:34:57.066Z,691.88
2018-04-06T10:35:57.000Z,973.13
2018-04-06T10:36:56.926Z,1558.13
2018-04-06T10:37:56.855Z,1906.88
2018-04-06T10:38:56.788Z,2272.50
2018-04-06T10:39:56.749Z,2418.75
2018-04-06T10:40:56.650Z,1726.88
2018-04-06T10:41:56.576Z,1704.38
2018-04-06T10:42:56.509Z,939.38
2018-04-06T10:43:56.437Z,618.75
2018-04-06T10:44:56.356Z,427.50
2018-04-06T10:45:56.305Z,933.75
2018-04-06T10:46:56.223Z,646.88
2018-04-06T10:47:56.155Z,748.13
2018-04-06T10:48:56.081Z,523.13
2018-04-06T10:49:56.011Z,450.00
2018-04-06T10:50:55.940Z,444.38
2018-04-06T10:51:55.880Z,298.13
2018-04-06T10:52:55.799Z,444.38
2018-04-06T10:53:55.729Z,376.88
2018-04-06T10:54:55.657Z,315.00
2018-04-06T10:55:55.587Z,343.13
2018-04-06T10:56:55.513Z,354.38
2018-04-06T10:57:55.443Z,455.63
2018-04-06T10:58:55.373Z,405.00
2018-04-06T10:59:55.306Z,388.13
2018-04-06T11:00:55.226Z,281.25
2018-04-06T11:01:55.156Z,388.13
2018-04-06T11:02:55.083Z,511.88
2018-04-06T11:03:55.013Z,472.50
2018-04-06T11:04:54.936Z,866.25
2018-04-06T11:05:54.867Z,748.13
2018-04-06T11:06:54.799Z,540.00
2018-04-06T11:07:54.722Z,545.63
2018-04-06T11:08:54.648Z,703.13
2018-04-06T11:09:54.605Z,770.63
2018-04-06T11:10:54.506Z,748.13
2018-04-06T11:11:54.433Z,838.13
2018-04-06T11:12:54.360Z,1147.50
2018-04-06T11:13:54.288Z,1085.63
2018-04-06T11:14:54.217Z,1260.00
2018-04-06T11:15:54.147Z,821.25
2018-04-06T11:16:54.074Z,849.38
2018-04-06T11:17:54.044Z,1282.50
2018-04-06T11:18:53.950Z,1305.00
2018-04-06T11:19:53.862Z,1479.38
2018-04-06T11:20:53.792Z,1496.25
2018-04-06T11:21:53.725Z,1411.88
2018-04-06T11:22:53.681Z,759.38
2018-04-06T11:23:53.577Z,281.25
2018-04-06T11:24:53.510Z,365.63
2018-04-06T11:25:53.442Z,213.75
2018-04-06T11:26:53.373Z,961.88
2018-04-06T11:27:53.302Z,1119.38
2018-04-06T11:28:53.231Z,1001.25
2018-04-06T11:29:53.164Z,1096.88
2018-04-06T11:30:53.125Z,1119.38
2018-04-06T11:31:53.027Z,1333.13
2018-04-06T11:32:52.953Z,691.88
2018-04-06T11:33:52.882Z,1293.75
2018-04-06T11:34:52.845Z,1451.25
2018-04-06T11:35:52.745Z,1839.38
2018-04-06T11:36:52.676Z,1434.38
2018-04-06T11:37:52.609Z,1856.25
2018-04-06T11:38:52.541Z,1951.88
2018-04-06T11:39:52.469Z,1811.25
2018-04-06T11:40:52.400Z,1591.88
2018-04-06T11:41:52.330Z,1822.50
2018-04-06T11:42:52.289Z,1558.13
2018-04-06T11:43:52.193Z,1710.00
2018-04-06T11:44:52.125Z,1546.88
2018-04-06T11:45:52.059Z,1119.38
2018-04-06T11:46:51.990Z,1839.38
2018-04-06T11:47:51.921Z,849.38
2018-04-06T11:48:51.852Z,759.38
2018-04-06T11:49:51.785Z,596.25
2018-04-06T11:50:51.721Z,433.13
2018-04-06T11:51:51.648Z,219.38
2018-04-06T11:52:51.579Z,213.75
2018-04-06T11:53:51.516Z,776.25
2018-04-06T11:54:51.441Z,1203.75
2018-04-06T11:55:51.379Z,669.38
2018-04-06T11:56:51.304Z,973.13
2018-04-06T11:57:51.281Z,753.75
2018-04-06T11:58:51.168Z,613.13
2018-04-06T11:59:51.140Z,573.75
2018-04-06T12:00:51.043Z,562.50
2018-04-06T12:01:50.960Z,551.25
2018-04-06T12:02:50.890Z,365.63
2018-04-06T12:03:50.818Z,652.50
2018-04-06T12:04:50.749Z,483.75
2018-04-06T12:05:50.679Z,781.88
2018-04-06T12:06:50.611Z,663.75
2018-04-06T12:07:50.600Z,517.50
2018-04-06T12:08:50.464Z,225.00
2018-04-06T12:09:50.405Z,225.00
2018-04-06T12:10:50.330Z,264.38
2018-04-06T12:11:50.274Z,860.63
2018-04-06T12:12:50.188Z,1108.13
2018-04-06T12:14:50.071Z,2041.88
2018-04-06T12:15:49.975Z,1665.00
2018-04-06T12:16:49.905Z,984.38
2018-04-06T12:17:49.839Z,286.88
2018-04-06T12:18:49.765Z,264.38
2018-04-06T12:19:49.694Z,241.88
2018-04-06T12:20:49.621Z,495.00
2018-04-06T12:21:49.569Z,517.50
2018-04-06T12:22:49.545Z,1591.88
2018-04-06T12:23:49.439Z,1929.38
2018-04-06T12:24:49.363Z,2643.75
2018-04-06T12:25:49.267Z,1884.38
2018-04-06T12:26:49.194Z,1850.63
2018-04-06T12:27:49.121Z,2070.00
2018-04-06T12:28:49.049Z,1316.25
2018-04-06T12:29:48.983Z,1659.38
2018-04-06T12:30:48.910Z,2013.75
2018-04-06T12:31:48.841Z,2188.13
2018-04-06T12:32:48.766Z,2998.13
2018-04-06T12:33:48.694Z,3521.25
2018-04-06T12:34:48.623Z,669.38
2018-04-06T12:35:48.552Z,230.63
2018-04-06T12:36:48.484Z,225.00
2018-04-06T12:37:48.410Z,236.25
2018-04-06T12:38:48.341Z,241.88
2018-04-06T12:39:48.274Z,945.00
2018-04-06T12:40:48.194Z,798.75
2018-04-06T12:41:48.129Z,1012.50
2018-04-06T12:42:48.057Z,675.00
2018-04-06T12:43:47.987Z,1321.88
2018-04-06T12:44:47.917Z,1080.00
2018-04-06T12:45:47.844Z,748.13
2018-04-06T12:46:47.775Z,1873.13
2018-04-06T12:47:47.702Z,2171.25
2018-04-06T12:48:47.634Z,1715.63
2018-04-06T12:49:47.602Z,1428.75